sensor_id;sensor_type;location;lat;lon;timestamp;P1;durP1;ratioP1;P2;durP2;ratioP2
50976;SDS011;36992;48.200;12.418;2023-05-07T00:02:19;1.27;;;0.60;;
50976;SDS011;36992;48.200;12.418;2023-05-07T00:04:47;1.10;;;0.50;;
50976;SDS011;36992;48.200;12.418;2023-05-07T00:07:14;1.63;;;0.35;;
50976;SDS011;36992;48.200;12.418;2023-05-07T00:09:41;1.60;;;0.50;;
50976;SDS011;36992;48.200;12.418;2023-05-07T00:12:07;1.58;;;0.50;;
50976;SDS011;36992;48.200;12.418;2023-05-07T00:14:33;1.27;;;0.50;;
50976;SDS011;36992;48.200;12.418;2023-05-07T00:17:00;2.33;;;1.02;;
50976;SDS011;36992;48.200;12.418;2023-05-07T00:19:26;2.25;;;0.73;;
50976;SDS011;36992;48.200;12.418;2023-05-07T00:21:54;1.58;;;1.15;;
50976;SDS011;36992;48.200;12.418;2023-05-07T00:24:21;1.50;;;0.80;;
50976;SDS011;36992;48.200;12.418;2023-05-07T00:26:47;1.05;;;0.43;;
50976;SDS011;36992;48.200;12.418;2023-05-07T00:29:14;1.38;;;0.50;;
50976;SDS011;36992;48.200;12.418;2023-05-07T00:31:40;1.63;;;0.60;;
50976;SDS011;36992;48.200;12.418;2023-05-07T00:34:07;2.65;;;0.82;;
50976;SDS011;36992;48.200;12.418;2023-05-07T00:36:33;1.58;;;0.80;;
50976;SDS011;36992;48.200;12.418;2023-05-07T00:39:01;2.17;;;0.57;;
50976;SDS011;36992;48.200;12.418;2023-05-07T00:41:28;2.58;;;1.10;;
50976;SDS011;36992;48.200;12.418;2023-05-07T00:43:55;1.73;;;0.60;;
50976;SDS011;36992;48.200;12.418;2023-05-07T00:46:22;1.30;;;0.55;;
50976;SDS011;36992;48.200;12.418;2023-05-07T00:48:49;2.63;;;0.73;;
50976;SDS011;36992;48.200;12.418;2023-05-07T00:51:16;1.27;;;0.55;;
50976;SDS011;36992;48.200;12.418;2023-05-07T00:53:43;3.08;;;0.90;;
50976;SDS011;36992;48.200;12.418;2023-05-07T00:56:11;1.38;;;0.50;;
50976;SDS011;36992;48.200;12.418;2023-05-07T00:58:38;2.20;;;0.70;;
50976;SDS011;36992;48.200;12.418;2023-05-07T01:01:04;1.83;;;0.70;;
50976;SDS011;36992;48.200;12.418;2023-05-07T01:03:31;1.70;;;0.60;;
50976;SDS011;36992;48.200;12.418;2023-05-07T01:05:57;2.85;;;0.77;;
50976;SDS011;36992;48.200;12.418;2023-05-07T01:08:26;1.15;;;0.50;;
50976;SDS011;36992;48.200;12.418;2023-05-07T01:10:55;2.33;;;0.50;;
50976;SDS011;36992;48.200;12.418;2023-05-07T01:13:24;2.42;;;1.02;;
50976;SDS011;36992;48.200;12.418;2023-05-07T01:15:51;2.72;;;0.75;;
50976;SDS011;36992;48.200;12.418;2023-05-07T01:18:17;2.13;;;0.70;;
50976;SDS011;36992;48.200;12.418;2023-05-07T01:20:44;1.55;;;0.70;;
50976;SDS011;36992;48.200;12.418;2023-05-07T01:23:12;2.72;;;0.70;;
50976;SDS011;36992;48.200;12.418;2023-05-07T01:25:39;2.00;;;0.73;;
50976;SDS011;36992;48.200;12.418;2023-05-07T01:28:05;1.27;;;0.52;;
50976;SDS011;36992;48.200;12.418;2023-05-07T01:30:32;1.55;;;0.57;;
50976;SDS011;36992;48.200;12.418;2023-05-07T01:33:01;1.33;;;0.50;;
50976;SDS011;36992;48.200;12.418;2023-05-07T01:35:33;1.10;;;0.50;;
50976;SDS011;36992;48.200;12.418;2023-05-07T01:38:03;2.10;;;0.68;;
50976;SDS011;36992;48.200;12.418;2023-05-07T01:40:32;3.03;;;0.73;;
50976;SDS011;36992;48.200;12.418;2023-05-07T01:43:00;1.55;;;0.63;;
50976;SDS011;36992;48.200;12.418;2023-05-07T01:45:27;1.65;;;0.50;;
50976;SDS011;36992;48.200;12.418;2023-05-07T01:47:54;1.65;;;0.70;;
50976;SDS011;36992;48.200;12.418;2023-05-07T01:50:21;1.42;;;0.55;;
50976;SDS011;36992;48.200;12.418;2023-05-07T01:52:49;1.65;;;0.50;;
50976;SDS011;36992;48.200;12.418;2023-05-07T01:55:17;1.98;;;0.68;;
50976;SDS011;36992;48.200;12.418;2023-05-07T01:57:45;1.90;;;0.82;;
50976;SDS011;36992;48.200;12.418;2023-05-07T02:00:12;1.80;;;0.70;;
50976;SDS011;36992;48.200;12.418;2023-05-07T02:02:38;1.95;;;0.63;;
50976;SDS011;36992;48.200;12.418;2023-05-07T02:05:05;1.70;;;0.70;;
50976;SDS011;36992;48.200;12.418;2023-05-07T02:07:32;1.55;;;0.63;;
50976;SDS011;36992;48.200;12.418;2023-05-07T02:09:58;1.70;;;0.70;;
50976;SDS011;36992;48.200;12.418;2023-05-07T02:12:25;1.98;;;0.50;;
50976;SDS011;36992;48.200;12.418;2023-05-07T02:14:53;1.42;;;0.45;;
50976;SDS011;36992;48.200;12.418;2023-05-07T02:17:19;2.00;;;0.50;;
50976;SDS011;36992;48.200;12.418;2023-05-07T02:19:46;2.70;;;0.70;;
50976;SDS011;36992;48.200;12.418;2023-05-07T02:22:12;1.50;;;0.45;;
50976;SDS011;36992;48.200;12.418;2023-05-07T02:24:39;1.30;;;0.50;;
50976;SDS011;36992;48.200;12.418;2023-05-07T02:27:05;2.40;;;0.80;;
50976;SDS011;36992;48.200;12.418;2023-05-07T02:29:31;1.48;;;0.68;;
50976;SDS011;36992;48.200;12.418;2023-05-07T02:31:59;1.40;;;0.50;;
50976;SDS011;36992;48.200;12.418;2023-05-07T02:34:26;1.50;;;0.52;;
50976;SDS011;36992;48.200;12.418;2023-05-07T02:36:52;2.30;;;0.95;;
50976;SDS011;36992;48.200;12.418;2023-05-07T02:39:19;2.70;;;1.10;;
50976;SDS011;36992;48.200;12.418;2023-05-07T02:41:45;1.63;;;0.50;;
50976;SDS011;36992;48.200;12.418;2023-05-07T02:44:12;1.52;;;0.60;;
50976;SDS011;36992;48.200;12.418;2023-05-07T02:46:38;1.85;;;0.75;;
50976;SDS011;36992;48.200;12.418;2023-05-07T02:49:06;1.23;;;0.63;;
50976;SDS011;36992;48.200;12.418;2023-05-07T02:51:32;1.30;;;0.47;;
50976;SDS011;36992;48.200;12.418;2023-05-07T02:53:59;1.58;;;0.47;;
50976;SDS011;36992;48.200;12.418;2023-05-07T02:56:26;1.98;;;0.50;;
50976;SDS011;36992;48.200;12.418;2023-05-07T02:58:52;1.02;;;0.43;;
50976;SDS011;36992;48.200;12.418;2023-05-07T03:01:19;0.80;;;0.40;;
50976;SDS011;36992;48.200;12.418;2023-05-07T03:03:45;3.05;;;0.50;;
50976;SDS011;36992;48.200;12.418;2023-05-07T03:06:13;2.00;;;0.60;;
50976;SDS011;36992;48.200;12.418;2023-05-07T03:08:40;1.13;;;0.57;;
50976;SDS011;36992;48.200;12.418;2023-05-07T03:11:06;4.90;;;0.88;;
50976;SDS011;36992;48.200;12.418;2023-05-07T03:13:33;1.38;;;0.47;;
50976;SDS011;36992;48.200;12.418;2023-05-07T03:15:59;2.10;;;0.70;;
50976;SDS011;36992;48.200;12.418;2023-05-07T03:18:26;1.42;;;0.50;;
50976;SDS011;36992;48.200;12.418;2023-05-07T03:20:52;1.15;;;0.43;;
50976;SDS011;36992;48.200;12.418;2023-05-07T03:23:20;1.30;;;0.45;;
50976;SDS011;36992;48.200;12.418;2023-05-07T03:25:46;1.77;;;0.50;;
50976;SDS011;36992;48.200;12.418;2023-05-07T03:28:13;2.05;;;0.90;;
50976;SDS011;36992;48.200;12.418;2023-05-07T03:30:39;1.30;;;0.52;;
50976;SDS011;36992;48.200;12.418;2023-05-07T03:33:06;3.05;;;0.50;;
50976;SDS011;36992;48.200;12.418;2023-05-07T03:35:32;1.42;;;0.60;;
50976;SDS011;36992;48.200;12.418;2023-05-07T03:37:59;1.33;;;0.50;;
50976;SDS011;36992;48.200;12.418;2023-05-07T03:40:27;1.30;;;0.40;;
50976;SDS011;36992;48.200;12.418;2023-05-07T03:42:54;1.30;;;0.40;;
50976;SDS011;36992;48.200;12.418;2023-05-07T03:45:20;1.77;;;0.90;;
50976;SDS011;36992;48.200;12.418;2023-05-07T03:47:47;3.35;;;1.55;;
50976;SDS011;36992;48.200;12.418;2023-05-07T03:50:13;0.60;;;0.30;;
50976;SDS011;36992;48.200;12.418;2023-05-07T03:52:40;1.92;;;0.45;;
50976;SDS011;36992;48.200;12.418;2023-05-07T03:55:06;1.83;;;0.47;;
50976;SDS011;36992;48.200;12.418;2023-05-07T03:57:35;1.33;;;0.50;;
50976;SDS011;36992;48.200;12.418;2023-05-07T04:00:02;1.92;;;0.60;;
50976;SDS011;36992;48.200;12.418;2023-05-07T04:02:29;1.63;;;0.52;;
50976;SDS011;36992;48.200;12.418;2023-05-07T04:04:56;2.05;;;0.60;;
50976;SDS011;36992;48.200;12.418;2023-05-07T04:07:22;3.85;;;0.60;;
50976;SDS011;36992;48.200;12.418;2023-05-07T04:09:49;1.20;;;0.50;;
50976;SDS011;36992;48.200;12.418;2023-05-07T04:12:15;1.08;;;0.50;;
50976;SDS011;36992;48.200;12.418;2023-05-07T04:14:43;1.65;;;0.57;;
50976;SDS011;36992;48.200;12.418;2023-05-07T04:17:10;2.13;;;0.70;;
50976;SDS011;36992;48.200;12.418;2023-05-07T04:19:37;1.20;;;0.60;;
50976;SDS011;36992;48.200;12.418;2023-05-07T04:22:03;1.38;;;0.45;;
50976;SDS011;36992;48.200;12.418;2023-05-07T04:24:30;1.50;;;0.45;;
50976;SDS011;36992;48.200;12.418;2023-05-07T04:26:57;1.17;;;0.47;;
50976;SDS011;36992;48.200;12.418;2023-05-07T04:29:24;1.35;;;0.50;;
50976;SDS011;36992;48.200;12.418;2023-05-07T04:31:52;1.20;;;0.52;;
50976;SDS011;36992;48.200;12.418;2023-05-07T04:34:20;1.65;;;0.60;;
50976;SDS011;36992;48.200;12.418;2023-05-07T04:36:47;2.53;;;0.60;;
50976;SDS011;36992;48.200;12.418;2023-05-07T04:39:13;1.10;;;0.50;;
50976;SDS011;36992;48.200;12.418;2023-05-07T04:41:40;2.65;;;0.57;;
50976;SDS011;36992;48.200;12.418;2023-05-07T04:44:06;1.50;;;0.60;;
50976;SDS011;36992;48.200;12.418;2023-05-07T04:46:34;2.92;;;0.60;;
50976;SDS011;36992;48.200;12.418;2023-05-07T04:49:02;1.48;;;0.50;;
50976;SDS011;36992;48.200;12.418;2023-05-07T04:51:28;2.13;;;1.13;;
50976;SDS011;36992;48.200;12.418;2023-05-07T04:53:55;2.00;;;0.63;;
50976;SDS011;36992;48.200;12.418;2023-05-07T04:56:21;1.45;;;0.50;;
50976;SDS011;36992;48.200;12.418;2023-05-07T04:58:48;2.20;;;0.52;;
50976;SDS011;36992;48.200;12.418;2023-05-07T05:01:14;2.25;;;1.17;;
50976;SDS011;36992;48.200;12.418;2023-05-07T05:03:41;1.10;;;0.60;;
50976;SDS011;36992;48.200;12.418;2023-05-07T05:06:09;1.48;;;0.52;;
50976;SDS011;36992;48.200;12.418;2023-05-07T05:08:35;2.28;;;0.60;;
50976;SDS011;36992;48.200;12.418;2023-05-07T05:11:02;0.90;;;0.40;;
50976;SDS011;36992;48.200;12.418;2023-05-07T05:13:28;2.13;;;0.77;;
50976;SDS011;36992;48.200;12.418;2023-05-07T05:15:55;1.38;;;0.63;;
50976;SDS011;36992;48.200;12.418;2023-05-07T05:18:22;1.90;;;0.60;;
50976;SDS011;36992;48.200;12.418;2023-05-07T05:20:48;2.33;;;0.88;;
50976;SDS011;36992;48.200;12.418;2023-05-07T05:23:16;2.30;;;1.40;;
50976;SDS011;36992;48.200;12.418;2023-05-07T05:25:42;3.05;;;0.60;;
50976;SDS011;36992;48.200;12.418;2023-05-07T05:28:09;2.10;;;0.60;;
50976;SDS011;36992;48.200;12.418;2023-05-07T05:30:35;1.05;;;0.55;;
50976;SDS011;36992;48.200;12.418;2023-05-07T05:33:02;1.92;;;0.93;;
50976;SDS011;36992;48.200;12.418;2023-05-07T05:35:29;2.25;;;0.80;;
50976;SDS011;36992;48.200;12.418;2023-05-07T05:37:55;1.52;;;0.60;;
50976;SDS011;36992;48.200;12.418;2023-05-07T05:40:23;2.92;;;1.00;;
50976;SDS011;36992;48.200;12.418;2023-05-07T05:42:49;3.20;;;1.10;;
50976;SDS011;36992;48.200;12.418;2023-05-07T05:45:16;1.38;;;0.75;;
50976;SDS011;36992;48.200;12.418;2023-05-07T05:47:42;1.85;;;0.80;;
50976;SDS011;36992;48.200;12.418;2023-05-07T05:50:09;2.95;;;1.10;;
50976;SDS011;36992;48.200;12.418;2023-05-07T05:52:35;2.30;;;1.23;;
50976;SDS011;36992;48.200;12.418;2023-05-07T05:55:02;2.10;;;1.30;;
50976;SDS011;36992;48.200;12.418;2023-05-07T05:57:30;2.90;;;1.10;;
50976;SDS011;36992;48.200;12.418;2023-05-07T05:59:56;2.22;;;0.90;;
50976;SDS011;36992;48.200;12.418;2023-05-07T06:02:23;1.73;;;0.70;;
50976;SDS011;36992;48.200;12.418;2023-05-07T06:04:50;2.25;;;0.75;;
50976;SDS011;36992;48.200;12.418;2023-05-07T06:07:16;4.68;;;1.30;;
50976;SDS011;36992;48.200;12.418;2023-05-07T06:09:43;1.27;;;0.60;;
50976;SDS011;36992;48.200;12.418;2023-05-07T06:12:09;3.17;;;0.75;;
50976;SDS011;36992;48.200;12.418;2023-05-07T06:14:37;1.95;;;0.70;;
50976;SDS011;36992;48.200;12.418;2023-05-07T06:17:03;2.13;;;0.95;;
50976;SDS011;36992;48.200;12.418;2023-05-07T06:19:30;1.80;;;0.80;;
50976;SDS011;36992;48.200;12.418;2023-05-07T06:21:56;1.30;;;0.68;;
50976;SDS011;36992;48.200;12.418;2023-05-07T06:24:23;1.17;;;0.60;;
50976;SDS011;36992;48.200;12.418;2023-05-07T06:26:50;2.08;;;0.70;;
50976;SDS011;36992;48.200;12.418;2023-05-07T06:29:16;1.38;;;0.90;;
50976;SDS011;36992;48.200;12.418;2023-05-07T06:31:44;2.30;;;1.20;;
50976;SDS011;36992;48.200;12.418;2023-05-07T06:34:11;1.42;;;0.77;;
50976;SDS011;36992;48.200;12.418;2023-05-07T06:36:39;2.22;;;0.85;;
50976;SDS011;36992;48.200;12.418;2023-05-07T06:39:05;4.40;;;1.40;;
50976;SDS011;36992;48.200;12.418;2023-05-07T06:41:32;1.30;;;0.70;;
50976;SDS011;36992;48.200;12.418;2023-05-07T06:43:59;2.80;;;0.98;;
50976;SDS011;36992;48.200;12.418;2023-05-07T06:46:25;2.30;;;1.17;;
50976;SDS011;36992;48.200;12.418;2023-05-07T06:48:54;3.35;;;2.13;;
50976;SDS011;36992;48.200;12.418;2023-05-07T06:51:21;3.30;;;1.55;;
50976;SDS011;36992;48.200;12.418;2023-05-07T06:53:48;3.10;;;2.08;;
50976;SDS011;36992;48.200;12.418;2023-05-07T06:56:14;5.38;;;2.88;;
50976;SDS011;36992;48.200;12.418;2023-05-07T06:58:41;5.40;;;2.30;;
50976;SDS011;36992;48.200;12.418;2023-05-07T07:01:07;6.22;;;2.10;;
50976;SDS011;36992;48.200;12.418;2023-05-07T07:03:34;3.90;;;2.25;;
50976;SDS011;36992;48.200;12.418;2023-05-07T07:06:02;4.03;;;2.45;;
50976;SDS011;36992;48.200;12.418;2023-05-07T07:08:29;4.13;;;2.00;;
50976;SDS011;36992;48.200;12.418;2023-05-07T07:10:55;5.03;;;2.10;;
50976;SDS011;36992;48.200;12.418;2023-05-07T07:13:21;3.40;;;2.03;;
50976;SDS011;36992;48.200;12.418;2023-05-07T07:15:48;3.13;;;1.88;;
50976;SDS011;36992;48.200;12.418;2023-05-07T07:18:14;2.33;;;1.73;;
50976;SDS011;36992;48.200;12.418;2023-05-07T07:20:41;3.10;;;2.25;;
50976;SDS011;36992;48.200;12.418;2023-05-07T07:23:10;2.70;;;1.75;;
50976;SDS011;36992;48.200;12.418;2023-05-07T07:25:37;3.50;;;2.17;;
50976;SDS011;36992;48.200;12.418;2023-05-07T07:28:04;4.10;;;2.03;;
50976;SDS011;36992;48.200;12.418;2023-05-07T07:30:31;3.78;;;1.95;;
50976;SDS011;36992;48.200;12.418;2023-05-07T07:32:58;4.07;;;2.80;;
50976;SDS011;36992;48.200;12.418;2023-05-07T07:35:27;4.53;;;2.67;;
50976;SDS011;36992;48.200;12.418;2023-05-07T07:37:54;4.60;;;2.40;;
50976;SDS011;36992;48.200;12.418;2023-05-07T07:40:21;3.70;;;1.77;;
50976;SDS011;36992;48.200;12.418;2023-05-07T07:42:48;3.35;;;2.20;;
50976;SDS011;36992;48.200;12.418;2023-05-07T07:45:14;4.47;;;2.63;;
50976;SDS011;36992;48.200;12.418;2023-05-07T07:47:41;4.10;;;2.05;;
50976;SDS011;36992;48.200;12.418;2023-05-07T07:50:08;4.75;;;2.33;;
50976;SDS011;36992;48.200;12.418;2023-05-07T07:52:35;3.05;;;2.13;;
50976;SDS011;36992;48.200;12.418;2023-05-07T07:55:02;3.17;;;1.65;;
50976;SDS011;36992;48.200;12.418;2023-05-07T07:57:30;4.90;;;3.00;;
50976;SDS011;36992;48.200;12.418;2023-05-07T07:59:57;4.03;;;2.75;;
50976;SDS011;36992;48.200;12.418;2023-05-07T08:02:23;3.95;;;2.28;;
50976;SDS011;36992;48.200;12.418;2023-05-07T08:04:50;3.42;;;2.47;;
50976;SDS011;36992;48.200;12.418;2023-05-07T08:07:16;6.90;;;2.70;;
50976;SDS011;36992;48.200;12.418;2023-05-07T08:09:45;3.47;;;2.22;;
50976;SDS011;36992;48.200;12.418;2023-05-07T08:12:12;3.78;;;2.22;;
50976;SDS011;36992;48.200;12.418;2023-05-07T08:14:40;3.28;;;2.00;;
50976;SDS011;36992;48.200;12.418;2023-05-07T08:17:07;3.00;;;1.98;;
50976;SDS011;36992;48.200;12.418;2023-05-07T08:19:34;2.72;;;1.88;;
50976;SDS011;36992;48.200;12.418;2023-05-07T08:22:01;5.22;;;2.10;;
50976;SDS011;36992;48.200;12.418;2023-05-07T08:24:29;4.03;;;2.40;;
50976;SDS011;36992;48.200;12.418;2023-05-07T08:26:55;3.65;;;2.15;;
50976;SDS011;36992;48.200;12.418;2023-05-07T08:29:21;4.65;;;1.90;;
50976;SDS011;36992;48.200;12.418;2023-05-07T08:31:49;3.38;;;2.53;;
50976;SDS011;36992;48.200;12.418;2023-05-07T08:34:16;3.13;;;2.13;;
50976;SDS011;36992;48.200;12.418;2023-05-07T08:36:42;3.95;;;2.30;;
50976;SDS011;36992;48.200;12.418;2023-05-07T08:39:09;4.10;;;2.63;;
50976;SDS011;36992;48.200;12.418;2023-05-07T08:41:35;3.95;;;2.10;;
50976;SDS011;36992;48.200;12.418;2023-05-07T08:44:02;5.28;;;2.75;;
50976;SDS011;36992;48.200;12.418;2023-05-07T08:46:32;3.25;;;2.20;;
50976;SDS011;36992;48.200;12.418;2023-05-07T08:49:00;3.28;;;2.35;;
50976;SDS011;36992;48.200;12.418;2023-05-07T08:51:27;3.28;;;2.13;;
50976;SDS011;36992;48.200;12.418;2023-05-07T08:53:54;3.83;;;2.30;;
50976;SDS011;36992;48.200;12.418;2023-05-07T08:56:20;4.00;;;2.20;;
50976;SDS011;36992;48.200;12.418;2023-05-07T08:58:47;3.38;;;2.38;;
50976;SDS011;36992;48.200;12.418;2023-05-07T09:01:14;3.63;;;2.28;;
50976;SDS011;36992;48.200;12.418;2023-05-07T09:03:42;3.70;;;2.33;;
50976;SDS011;36992;48.200;12.418;2023-05-07T09:06:12;2.88;;;2.08;;
50976;SDS011;36992;48.200;12.418;2023-05-07T09:08:38;3.67;;;2.05;;
50976;SDS011;36992;48.200;12.418;2023-05-07T09:11:05;3.55;;;2.47;;
50976;SDS011;36992;48.200;12.418;2023-05-07T09:13:31;2.58;;;1.73;;
50976;SDS011;36992;48.200;12.418;2023-05-07T09:15:58;3.45;;;1.92;;
50976;SDS011;36992;48.200;12.418;2023-05-07T09:18:35;2.35;;;1.50;;
50976;SDS011;36992;48.200;12.418;2023-05-07T09:21:09;2.58;;;1.75;;
50976;SDS011;36992;48.200;12.418;2023-05-07T09:23:37;3.35;;;2.30;;
50976;SDS011;36992;48.200;12.418;2023-05-07T09:26:04;3.63;;;1.90;;
50976;SDS011;36992;48.200;12.418;2023-05-07T09:28:33;2.83;;;1.67;;
50976;SDS011;36992;48.200;12.418;2023-05-07T09:31:00;2.85;;;1.55;;
50976;SDS011;36992;48.200;12.418;2023-05-07T09:33:27;3.15;;;1.70;;
50976;SDS011;36992;48.200;12.418;2023-05-07T09:35:54;3.28;;;1.50;;
50976;SDS011;36992;48.200;12.418;2023-05-07T09:38:21;2.30;;;1.27;;
50976;SDS011;36992;48.200;12.418;2023-05-07T09:40:52;5.30;;;1.63;;
50976;SDS011;36992;48.200;12.418;2023-05-07T09:43:31;4.43;;;1.45;;
50976;SDS011;36992;48.200;12.418;2023-05-07T09:45:58;2.17;;;1.42;;
50976;SDS011;36992;48.200;12.418;2023-05-07T09:48:28;3.58;;;1.65;;
50976;SDS011;36992;48.200;12.418;2023-05-07T09:50:56;3.35;;;1.67;;
50976;SDS011;36992;48.200;12.418;2023-05-07T09:53:27;2.00;;;1.10;;
50976;SDS011;36992;48.200;12.418;2023-05-07T09:55:56;2.70;;;1.25;;
50976;SDS011;36992;48.200;12.418;2023-05-07T09:58:25;2.33;;;1.10;;
50976;SDS011;36992;48.200;12.418;2023-05-07T10:00:52;1.60;;;0.90;;
50976;SDS011;36992;48.200;12.418;2023-05-07T10:03:19;2.42;;;1.40;;
50976;SDS011;36992;48.200;12.418;2023-05-07T10:05:46;2.00;;;1.00;;
50976;SDS011;36992;48.200;12.418;2023-05-07T10:08:13;2.03;;;1.00;;
50976;SDS011;36992;48.200;12.418;2023-05-07T10:10:41;2.70;;;1.08;;
50976;SDS011;36992;48.200;12.418;2023-05-07T10:13:10;3.03;;;0.88;;
50976;SDS011;36992;48.200;12.418;2023-05-07T10:15:36;3.78;;;1.92;;
50976;SDS011;36992;48.200;12.418;2023-05-07T10:18:03;1.55;;;0.73;;
50976;SDS011;36992;48.200;12.418;2023-05-07T10:20:32;1.10;;;0.68;;
50976;SDS011;36992;48.200;12.418;2023-05-07T10:23:00;2.70;;;1.00;;
50976;SDS011;36992;48.200;12.418;2023-05-07T10:25:31;1.77;;;0.93;;
50976;SDS011;36992;48.200;12.418;2023-05-07T10:27:59;3.80;;;0.98;;
50976;SDS011;36992;48.200;12.418;2023-05-07T10:30:32;1.45;;;0.50;;
50976;SDS011;36992;48.200;12.418;2023-05-07T10:33:07;1.42;;;0.60;;
50976;SDS011;36992;48.200;12.418;2023-05-07T10:35:38;0.60;;;0.30;;
50976;SDS011;36992;48.200;12.418;2023-05-07T10:38:06;1.58;;;0.60;;
50976;SDS011;36992;48.200;12.418;2023-05-07T10:40:35;0.93;;;0.38;;
50976;SDS011;36992;48.200;12.418;2023-05-07T10:43:02;1.67;;;0.60;;
50976;SDS011;36992;48.200;12.418;2023-05-07T10:45:31;2.17;;;0.75;;
50976;SDS011;36992;48.200;12.418;2023-05-07T10:48:08;1.33;;;0.47;;
50976;SDS011;36992;48.200;12.418;2023-05-07T10:50:37;1.17;;;0.50;;
50976;SDS011;36992;48.200;12.418;2023-05-07T10:53:22;3.10;;;0.50;;
50976;SDS011;36992;48.200;12.418;2023-05-07T10:58:52;1.63;;;0.40;;
50976;SDS011;36992;48.200;12.418;2023-05-07T11:04:17;2.25;;;0.70;;
50976;SDS011;36992;48.200;12.418;2023-05-07T11:09:58;1.02;;;0.40;;
50976;SDS011;36992;48.200;12.418;2023-05-07T11:15:34;1.20;;;0.30;;
50976;SDS011;36992;48.200;12.418;2023-05-07T11:18:06;3.28;;;0.50;;
50976;SDS011;36992;48.200;12.418;2023-05-07T11:26:24;1.27;;;0.40;;
50976;SDS011;36992;48.200;12.418;2023-05-07T11:28:52;0.63;;;0.20;;
50976;SDS011;36992;48.200;12.418;2023-05-07T11:31:22;1.13;;;0.30;;
50976;SDS011;36992;48.200;12.418;2023-05-07T11:33:52;0.77;;;0.30;;
50976;SDS011;36992;48.200;12.418;2023-05-07T11:36:20;0.70;;;0.30;;
50976;SDS011;36992;48.200;12.418;2023-05-07T11:38:47;0.60;;;0.30;;
50976;SDS011;36992;48.200;12.418;2023-05-07T11:41:15;0.93;;;0.40;;
50976;SDS011;36992;48.200;12.418;2023-05-07T11:43:56;1.15;;;0.35;;
50976;SDS011;36992;48.200;12.418;2023-05-07T11:46:23;1.63;;;0.20;;
50976;SDS011;36992;48.200;12.418;2023-05-07T11:48:50;0.43;;;0.20;;
50976;SDS011;36992;48.200;12.418;2023-05-07T11:51:21;0.95;;;0.30;;
50976;SDS011;36992;48.200;12.418;2023-05-07T11:53:49;0.60;;;0.10;;
50976;SDS011;36992;48.200;12.418;2023-05-07T11:56:16;1.27;;;0.20;;
50976;SDS011;36992;48.200;12.418;2023-05-07T11:58:44;1.40;;;0.30;;
50976;SDS011;36992;48.200;12.418;2023-05-07T12:01:12;0.70;;;0.20;;
50976;SDS011;36992;48.200;12.418;2023-05-07T12:03:40;0.52;;;0.13;;
50976;SDS011;36992;48.200;12.418;2023-05-07T12:06:08;0.60;;;0.20;;
50976;SDS011;36992;48.200;12.418;2023-05-07T12:08:37;1.10;;;0.20;;
50976;SDS011;36992;48.200;12.418;2023-05-07T12:11:06;0.45;;;0.20;;
50976;SDS011;36992;48.200;12.418;2023-05-07T12:13:34;0.47;;;0.13;;
50976;SDS011;36992;48.200;12.418;2023-05-07T12:16:01;0.43;;;0.20;;
50976;SDS011;36992;48.200;12.418;2023-05-07T12:18:30;0.30;;;0.10;;
50976;SDS011;36992;48.200;12.418;2023-05-07T12:20:57;0.65;;;0.20;;
50976;SDS011;36992;48.200;12.418;2023-05-07T12:23:24;1.23;;;0.20;;
50976;SDS011;36992;48.200;12.418;2023-05-07T12:25:52;0.85;;;0.30;;
50976;SDS011;36992;48.200;12.418;2023-05-07T12:28:19;1.75;;;0.30;;
50976;SDS011;36992;48.200;12.418;2023-05-07T12:30:46;0.65;;;0.15;;
50976;SDS011;36992;48.200;12.418;2023-05-07T12:33:15;1.65;;;0.30;;
50976;SDS011;36992;48.200;12.418;2023-05-07T12:35:42;0.68;;;0.30;;
50976;SDS011;36992;48.200;12.418;2023-05-07T12:38:09;0.80;;;0.30;;
50976;SDS011;36992;48.200;12.418;2023-05-07T12:40:38;0.80;;;0.20;;
50976;SDS011;36992;48.200;12.418;2023-05-07T12:43:07;1.40;;;0.20;;
50976;SDS011;36992;48.200;12.418;2023-05-07T12:45:36;0.80;;;0.30;;
50976;SDS011;36992;48.200;12.418;2023-05-07T12:48:04;0.82;;;0.28;;
50976;SDS011;36992;48.200;12.418;2023-05-07T12:50:31;0.75;;;0.20;;
50976;SDS011;36992;48.200;12.418;2023-05-07T12:52:58;2.80;;;0.32;;
50976;SDS011;36992;48.200;12.418;2023-05-07T12:55:25;0.43;;;0.20;;
50976;SDS011;36992;48.200;12.418;2023-05-07T12:57:52;0.52;;;0.20;;
50976;SDS011;36992;48.200;12.418;2023-05-07T13:00:33;1.20;;;0.28;;
50976;SDS011;36992;48.200;12.418;2023-05-07T13:03:00;1.92;;;0.35;;
50976;SDS011;36992;48.200;12.418;2023-05-07T13:05:27;0.47;;;0.20;;
50976;SDS011;36992;48.200;12.418;2023-05-07T13:07:53;1.10;;;0.20;;
50976;SDS011;36992;48.200;12.418;2023-05-07T13:10:21;0.68;;;0.30;;
50976;SDS011;36992;48.200;12.418;2023-05-07T13:12:48;0.73;;;0.28;;
50976;SDS011;36992;48.200;12.418;2023-05-07T13:15:14;1.38;;;0.17;;
50976;SDS011;36992;48.200;12.418;2023-05-07T13:17:42;0.50;;;0.20;;
50976;SDS011;36992;48.200;12.418;2023-05-07T13:20:09;1.02;;;0.30;;
50976;SDS011;36992;48.200;12.418;2023-05-07T13:22:37;0.68;;;0.20;;
50976;SDS011;36992;48.200;12.418;2023-05-07T13:25:04;0.70;;;0.20;;
50976;SDS011;36992;48.200;12.418;2023-05-07T13:27:31;0.93;;;0.15;;
50976;SDS011;36992;48.200;12.418;2023-05-07T13:30:00;3.10;;;0.20;;
50976;SDS011;36992;48.200;12.418;2023-05-07T13:32:27;1.02;;;0.30;;
50976;SDS011;36992;48.200;12.418;2023-05-07T13:34:55;1.30;;;0.30;;
50976;SDS011;36992;48.200;12.418;2023-05-07T13:37:21;1.60;;;0.20;;
50976;SDS011;36992;48.200;12.418;2023-05-07T13:39:48;0.93;;;0.30;;
50976;SDS011;36992;48.200;12.418;2023-05-07T13:42:14;0.50;;;0.13;;
50976;SDS011;36992;48.200;12.418;2023-05-07T13:44:41;0.98;;;0.15;;
50976;SDS011;36992;48.200;12.418;2023-05-07T13:47:08;0.60;;;0.20;;
50976;SDS011;36992;48.200;12.418;2023-05-07T13:49:35;1.13;;;0.20;;
50976;SDS011;36992;48.200;12.418;2023-05-07T13:52:03;0.85;;;0.20;;
50976;SDS011;36992;48.200;12.418;2023-05-07T13:54:30;0.82;;;0.20;;
50976;SDS011;36992;48.200;12.418;2023-05-07T13:56:56;0.70;;;0.17;;
50976;SDS011;36992;48.200;12.418;2023-05-07T13:59:23;0.45;;;0.13;;
50976;SDS011;36992;48.200;12.418;2023-05-07T14:01:49;0.43;;;0.20;;
50976;SDS011;36992;48.200;12.418;2023-05-07T14:04:16;1.80;;;0.20;;
50976;SDS011;36992;48.200;12.418;2023-05-07T14:06:42;2.45;;;0.20;;
50976;SDS011;36992;48.200;12.418;2023-05-07T14:09:10;0.52;;;0.17;;
50976;SDS011;36992;48.200;12.418;2023-05-07T14:11:38;0.40;;;0.10;;
50976;SDS011;36992;48.200;12.418;2023-05-07T14:14:04;0.43;;;0.20;;
50976;SDS011;36992;48.200;12.418;2023-05-07T14:16:31;0.30;;;0.20;;
50976;SDS011;36992;48.200;12.418;2023-05-07T14:18:57;0.68;;;0.28;;
50976;SDS011;36992;48.200;12.418;2023-05-07T14:21:24;1.00;;;0.40;;
50976;SDS011;36992;48.200;12.418;2023-05-07T14:23:50;0.50;;;0.15;;
50976;SDS011;36992;48.200;12.418;2023-05-07T14:26:18;0.47;;;0.17;;
50976;SDS011;36992;48.200;12.418;2023-05-07T14:28:45;0.63;;;0.20;;
50976;SDS011;36992;48.200;12.418;2023-05-07T14:31:12;1.73;;;0.10;;
50976;SDS011;36992;48.200;12.418;2023-05-07T14:33:38;2.55;;;0.20;;
50976;SDS011;36992;48.200;12.418;2023-05-07T14:36:05;0.50;;;0.10;;
50976;SDS011;36992;48.200;12.418;2023-05-07T14:38:32;0.40;;;0.20;;
50976;SDS011;36992;48.200;12.418;2023-05-07T14:40:58;0.65;;;0.20;;
50976;SDS011;36992;48.200;12.418;2023-05-07T14:43:27;0.43;;;0.10;;
50976;SDS011;36992;48.200;12.418;2023-05-07T14:45:53;0.30;;;0.10;;
50976;SDS011;36992;48.200;12.418;2023-05-07T14:48:20;0.75;;;0.20;;
50976;SDS011;36992;48.200;12.418;2023-05-07T14:50:46;0.40;;;0.10;;
50976;SDS011;36992;48.200;12.418;2023-05-07T14:53:13;0.85;;;0.20;;